createdAt,value
2023-03-15T00:02:01.420Z,7.27
2023-03-15T00:04:28.762Z,5.40
2023-03-15T00:06:56.016Z,6.17
2023-03-15T00:09:24.136Z,5.27
2023-03-15T00:11:54.539Z,5.67
2023-03-15T00:14:22.015Z,5.10
2023-03-15T00:16:49.087Z,5.33
2023-03-15T00:19:15.815Z,6.03
2023-03-15T00:21:43.388Z,5.90
2023-03-15T00:24:12.949Z,4.40
2023-03-15T00:26:39.746Z,5.67
2023-03-15T00:29:06.497Z,5.17
2023-03-15T00:31:33.318Z,6.03
2023-03-15T00:34:00.724Z,6.20
2023-03-15T00:36:27.575Z,5.47
2023-03-15T00:38:56.530Z,5.07
2023-03-15T00:41:24.088Z,5.50
2023-03-15T00:43:51.912Z,5.27
2023-03-15T00:46:19.684Z,5.47
2023-03-15T00:48:51.302Z,4.97
2023-03-15T00:51:21.869Z,5.27
2023-03-15T00:53:51.486Z,5.27
2023-03-15T00:56:23.464Z,4.43
2023-03-15T00:58:52.818Z,5.00
2023-03-15T01:01:27.156Z,5.40
2023-03-15T01:03:54.776Z,4.60
2023-03-15T01:06:26.104Z,3.83
2023-03-15T01:08:55.672Z,5.30
2023-03-15T01:11:26.575Z,4.33
2023-03-15T01:13:55.876Z,4.50
2023-03-15T01:16:23.907Z,4.00
2023-03-15T01:18:51.644Z,4.20
2023-03-15T01:21:20.916Z,4.30
2023-03-15T01:23:47.847Z,3.70
2023-03-15T01:26:16.593Z,4.23
2023-03-15T01:28:43.873Z,4.57
2023-03-15T01:31:27.346Z,3.80
2023-03-15T01:33:54.858Z,3.93
2023-03-15T01:36:22.184Z,4.03
2023-03-15T01:38:49.742Z,3.27
2023-03-15T01:41:18.956Z,3.43
2023-03-15T01:43:48.707Z,3.70
2023-03-15T01:46:27.852Z,4.20
2023-03-15T01:49:13.839Z,3.47
2023-03-15T01:51:59.914Z,3.40
2023-03-15T01:54:49.808Z,3.30
2023-03-15T01:57:44.277Z,3.30
2023-03-15T02:00:16.458Z,3.77
2023-03-15T02:03:00.455Z,3.40
2023-03-15T02:05:33.670Z,3.40
2023-03-15T02:08:02.474Z,3.60
2023-03-15T02:10:46.713Z,3.43
2023-03-15T02:13:18.835Z,2.73
2023-03-15T02:15:49.045Z,2.93
2023-03-15T02:18:16.844Z,2.97
2023-03-15T02:21:09.615Z,3.30
2023-03-15T02:23:36.514Z,3.47
2023-03-15T02:26:16.645Z,3.00
2023-03-15T02:28:44.839Z,3.47
2023-03-15T02:31:11.914Z,2.90
2023-03-15T02:33:51.146Z,2.47
2023-03-15T02:36:27.220Z,1.80
2023-03-15T02:38:55.728Z,1.43
2023-03-15T02:41:40.195Z,1.77
2023-03-15T02:44:14.542Z,1.40
2023-03-15T02:46:43.774Z,1.60
2023-03-15T02:49:13.390Z,1.40
2023-03-15T02:51:40.166Z,1.47
2023-03-15T02:54:06.943Z,1.50
2023-03-15T02:56:33.727Z,1.33
2023-03-15T02:59:01.096Z,1.30
2023-03-15T03:01:27.936Z,1.50
2023-03-15T03:03:54.700Z,1.60
2023-03-15T03:06:21.475Z,1.53
2023-03-15T03:08:48.326Z,1.73
2023-03-15T03:11:16.256Z,1.87
2023-03-15T03:13:43.803Z,1.60
2023-03-15T03:16:11.515Z,1.87
2023-03-15T03:18:39.842Z,1.73
2023-03-15T03:21:08.338Z,2.03
2023-03-15T03:23:36.669Z,2.20
2023-03-15T03:26:16.621Z,2.10
2023-03-15T03:28:48.688Z,2.47
2023-03-15T03:31:26.122Z,2.40
2023-03-15T03:33:55.293Z,2.53
2023-03-15T03:36:22.052Z,2.73
2023-03-15T03:38:48.835Z,2.70
2023-03-15T03:41:15.553Z,2.50
2023-03-15T03:43:42.594Z,2.50
2023-03-15T03:46:09.716Z,2.83
2023-03-15T03:48:36.431Z,2.60
2023-03-15T03:51:03.462Z,2.77
2023-03-15T03:53:30.668Z,2.60
2023-03-15T03:55:57.512Z,2.57
2023-03-15T03:58:24.236Z,2.20
2023-03-15T04:00:55.448Z,2.77
2023-03-15T04:03:27.833Z,2.77
2023-03-15T04:05:56.304Z,2.03
2023-03-15T04:08:25.173Z,1.70
2023-03-15T04:10:53.982Z,2.00
2023-03-15T04:13:22.301Z,1.40
2023-03-15T04:15:49.696Z,1.47
2023-03-15T04:18:17.784Z,1.73
2023-03-15T04:20:48.304Z,1.80
2023-03-15T04:23:17.979Z,1.27
2023-03-15T04:25:51.547Z,1.60
2023-03-15T04:28:19.281Z,1.53
2023-03-15T04:30:49.276Z,1.37
2023-03-15T04:33:16.225Z,1.80
2023-03-15T04:35:48.742Z,1.80
2023-03-15T04:38:15.752Z,1.80
2023-03-15T04:40:42.776Z,2.00
2023-03-15T04:43:09.614Z,1.80
2023-03-15T04:45:36.673Z,1.90
2023-03-15T04:48:03.581Z,1.97
2023-03-15T04:50:31.022Z,2.07
2023-03-15T04:52:59.550Z,2.40
2023-03-15T04:55:26.515Z,2.70
2023-03-15T04:57:53.578Z,2.80
2023-03-15T05:00:20.535Z,2.87
2023-03-15T05:02:54.584Z,2.70
2023-03-15T05:05:23.698Z,2.90
2023-03-15T05:07:50.908Z,3.17
2023-03-15T05:10:18.002Z,3.40
2023-03-15T05:12:44.950Z,3.60
2023-03-15T05:15:12.247Z,3.43
2023-03-15T05:17:39.125Z,3.50
2023-03-15T05:20:13.095Z,3.73
2023-03-15T05:22:41.149Z,3.40
2023-03-15T05:25:10.583Z,3.33
2023-03-15T05:27:38.688Z,4.00
2023-03-15T05:30:07.500Z,4.20
2023-03-15T05:32:35.257Z,4.33
2023-03-15T05:35:03.953Z,3.57
2023-03-15T05:37:32.362Z,4.30
2023-03-15T05:40:00.240Z,3.93
2023-03-15T05:42:27.450Z,4.00
2023-03-15T05:44:55.483Z,4.03
2023-03-15T05:47:23.077Z,3.63
2023-03-15T05:49:50.023Z,4.30
2023-03-15T05:52:17.135Z,4.30
2023-03-15T05:54:43.915Z,4.47
2023-03-15T05:57:11.506Z,5.10
2023-03-15T05:59:38.421Z,4.80
2023-03-15T06:02:05.253Z,5.30
2023-03-15T06:04:32.114Z,5.03
2023-03-15T06:06:58.877Z,5.30
2023-03-15T06:09:25.753Z,4.60
2023-03-15T06:11:53.536Z,4.60
2023-03-15T06:14:20.410Z,4.53
2023-03-15T06:16:47.259Z,5.30
2023-03-15T06:19:14.048Z,4.97
2023-03-15T06:21:40.861Z,4.87
2023-03-15T06:24:08.027Z,4.70
2023-03-15T06:26:34.819Z,5.10
2023-03-15T06:29:01.649Z,4.90
2023-03-15T06:31:28.705Z,4.93
2023-03-15T06:33:55.659Z,4.40
2023-03-15T06:36:23.364Z,5.33
2023-03-15T06:38:50.625Z,5.20
2023-03-15T06:41:17.383Z,4.63
2023-03-15T06:43:45.054Z,4.87
2023-03-15T06:46:11.816Z,5.17
2023-03-15T06:48:38.568Z,5.23
2023-03-15T06:51:06.506Z,5.47
2023-03-15T06:53:33.408Z,5.33
2023-03-15T06:56:01.267Z,5.17
2023-03-15T06:58:28.057Z,5.07
2023-03-15T07:00:54.782Z,5.73
2023-03-15T07:03:22.368Z,5.10
2023-03-15T07:05:52.622Z,5.27
2023-03-15T07:08:21.298Z,5.60
2023-03-15T07:10:48.736Z,5.83
2023-03-15T07:13:16.664Z,5.10
2023-03-15T07:15:43.605Z,5.20
2023-03-15T07:18:10.558Z,5.50
2023-03-15T07:20:37.890Z,6.07
2023-03-15T07:23:05.440Z,6.37
2023-03-15T07:25:33.334Z,6.50
2023-03-15T07:28:03.010Z,5.60
2023-03-15T07:30:29.864Z,6.33
2023-03-15T07:32:56.691Z,5.87
2023-03-15T07:35:24.654Z,6.13
2023-03-15T07:37:51.403Z,5.90
2023-03-15T07:40:18.362Z,6.50
2023-03-15T07:42:45.872Z,7.20
2023-03-15T07:45:13.483Z,6.87
2023-03-15T07:47:40.896Z,7.07
2023-03-15T07:50:08.604Z,7.30
2023-03-15T07:52:35.340Z,6.80
2023-03-15T07:55:02.094Z,7.30
2023-03-15T07:57:29.073Z,7.67
2023-03-15T07:59:56.050Z,7.73
2023-03-15T08:02:27.653Z,6.73
2023-03-15T08:04:55.876Z,5.90
2023-03-15T08:07:22.616Z,6.43
2023-03-15T08:09:49.335Z,6.50
2023-03-15T08:12:16.057Z,5.37
2023-03-15T08:14:42.810Z,6.00
2023-03-15T08:17:13.008Z,5.50
2023-03-15T08:19:40.133Z,5.20
2023-03-15T08:22:07.320Z,5.77
2023-03-15T08:24:34.317Z,5.70
2023-03-15T08:27:01.567Z,4.97
2023-03-15T08:29:29.026Z,5.40
2023-03-15T08:31:55.935Z,5.47
2023-03-15T08:34:23.619Z,5.37
2023-03-15T08:36:51.085Z,5.53
2023-03-15T08:39:17.929Z,5.50
2023-03-15T08:41:45.569Z,5.30
2023-03-15T08:44:12.343Z,5.43
2023-03-15T08:46:39.200Z,5.30
2023-03-15T08:49:05.955Z,5.40
2023-03-15T08:51:33.585Z,5.10
2023-03-15T08:54:03.873Z,5.00
2023-03-15T08:56:32.310Z,4.40
2023-03-15T08:58:59.243Z,4.50
2023-03-15T09:01:26.008Z,4.53
2023-03-15T09:03:52.896Z,4.07
2023-03-15T09:06:19.678Z,3.63
2023-03-15T09:08:46.451Z,4.17
2023-03-15T09:11:13.710Z,4.73
2023-03-15T09:13:40.513Z,4.47
2023-03-15T09:16:07.776Z,3.80
2023-03-15T09:18:34.570Z,4.03
2023-03-15T09:21:01.673Z,4.33
2023-03-15T09:23:28.487Z,4.03
2023-03-15T09:25:55.221Z,3.97
2023-03-15T09:28:22.177Z,4.23
2023-03-15T09:30:48.950Z,4.00
2023-03-15T09:33:15.727Z,4.00
2023-03-15T09:35:42.799Z,4.13
2023-03-15T09:38:10.380Z,3.67
2023-03-15T09:40:47.919Z,3.00
2023-03-15T09:43:40.874Z,3.47
2023-03-15T09:46:42.046Z,3.47
2023-03-15T09:49:26.996Z,3.10
2023-03-15T09:52:26.236Z,2.72
2023-03-15T09:55:15.712Z,3.50
2023-03-15T09:58:04.666Z,3.67
2023-03-15T10:00:46.231Z,2.97
2023-03-15T10:03:44.147Z,2.70
2023-03-15T10:06:26.893Z,3.20
2023-03-15T10:09:00.540Z,2.97
2023-03-15T10:12:04.666Z,3.00
2023-03-15T10:15:18.194Z,3.15
2023-03-15T10:17:59.598Z,2.90
2023-03-15T10:20:35.592Z,2.70
2023-03-15T10:23:16.298Z,2.92
2023-03-15T10:25:44.782Z,2.30
2023-03-15T10:28:34.795Z,2.40
2023-03-15T10:31:22.508Z,2.25
2023-03-15T10:33:57.168Z,2.67
2023-03-15T10:36:25.845Z,2.00
2023-03-15T10:38:52.804Z,2.13
2023-03-15T10:41:44.690Z,2.30
2023-03-15T10:44:18.270Z,2.10
2023-03-15T10:47:22.607Z,2.30
2023-03-15T10:49:57.504Z,1.90
2023-03-15T10:52:43.415Z,1.77
2023-03-15T10:55:21.199Z,1.90
2023-03-15T10:57:59.863Z,2.10
2023-03-15T11:00:36.666Z,2.33
2023-03-15T11:03:19.592Z,2.20
2023-03-15T11:05:51.596Z,2.63
2023-03-15T11:08:24.110Z,2.30
2023-03-15T11:10:59.778Z,2.20
2023-03-15T11:13:39.085Z,1.97
2023-03-15T11:16:15.539Z,2.20
2023-03-15T11:18:59.599Z,2.10
2023-03-15T11:21:35.282Z,2.20
2023-03-15T11:24:05.595Z,1.97
2023-03-15T11:26:38.585Z,1.50
2023-03-15T11:29:23.558Z,1.77
2023-03-15T11:31:52.099Z,1.70
2023-03-15T11:34:48.506Z,1.40
2023-03-15T11:37:23.490Z,2.07
2023-03-15T11:40:15.548Z,1.60
2023-03-15T11:43:11.994Z,1.50
2023-03-15T11:45:57.703Z,1.93
2023-03-15T11:48:46.006Z,1.93
2023-03-15T11:51:14.189Z,1.87
2023-03-15T11:54:13.296Z,1.60
2023-03-15T11:56:49.294Z,1.60
2023-03-15T11:59:19.683Z,1.97
2023-03-15T12:01:57.633Z,1.80
2023-03-15T12:04:33.139Z,2.20
2023-03-15T12:07:06.505Z,2.00
2023-03-15T12:09:33.171Z,2.30
2023-03-15T12:12:04.532Z,2.17
2023-03-15T12:14:37.034Z,2.43
2023-03-15T12:17:53.898Z,2.70
2023-03-15T12:20:37.736Z,2.20
2023-03-15T12:23:16.766Z,1.70
2023-03-15T12:25:56.471Z,1.70
2023-03-15T12:28:49.450Z,2.00
2023-03-15T12:31:17.129Z,1.60
2023-03-15T12:33:54.996Z,1.40
2023-03-15T12:36:34.686Z,1.60
2023-03-15T12:39:36.952Z,1.60
2023-03-15T12:42:06.065Z,1.40
2023-03-15T12:44:32.748Z,1.70
2023-03-15T12:47:06.000Z,1.90
2023-03-15T12:49:41.223Z,1.70
2023-03-15T12:52:11.006Z,1.63
2023-03-15T12:55:15.972Z,1.90
2023-03-15T12:57:57.983Z,1.40
2023-03-15T13:00:30.250Z,1.77
2023-03-15T13:03:11.598Z,2.10
2023-03-15T13:06:24.637Z,1.83
2023-03-15T13:09:39.466Z,1.83
2023-03-15T13:12:20.209Z,1.40
2023-03-15T13:15:02.807Z,1.27
2023-03-15T13:17:52.783Z,1.60
2023-03-15T13:20:59.344Z,1.40
2023-03-15T13:23:29.816Z,1.90
2023-03-15T13:26:18.159Z,1.80
2023-03-15T13:29:00.957Z,2.00
2023-03-15T13:31:31.638Z,1.77
2023-03-15T13:34:15.352Z,1.70
2023-03-15T13:36:49.285Z,1.97
2023-03-15T13:39:27.673Z,1.57
2023-03-15T13:42:04.484Z,1.70
2023-03-15T13:45:39.772Z,1.80
2023-03-15T13:47:26.655Z,1.80
2023-03-15T13:49:53.552Z,2.20
2023-03-15T13:52:20.592Z,1.97
2023-03-15T13:54:48.727Z,1.83
2023-03-15T13:57:24.832Z,1.43
2023-03-15T13:59:57.126Z,1.77
2023-03-15T14:02:33.155Z,1.60
2023-03-15T14:05:07.132Z,1.37
2023-03-15T14:07:44.254Z,1.70
2023-03-15T14:10:17.139Z,1.17
2023-03-15T14:12:45.716Z,1.73
2023-03-15T14:15:35.890Z,1.47
2023-03-15T14:18:17.179Z,1.80
2023-03-15T14:20:53.762Z,1.67
2023-03-15T14:23:26.445Z,1.60
2023-03-15T14:26:06.852Z,1.50
2023-03-15T14:28:34.580Z,1.50
2023-03-15T14:31:02.674Z,1.50
2023-03-15T14:33:41.862Z,1.50
2023-03-15T14:36:24.724Z,1.50
2023-03-15T14:38:58.031Z,1.40
2023-03-15T14:41:27.556Z,1.87
2023-03-15T14:43:54.377Z,1.50
2023-03-15T14:46:21.565Z,1.87
2023-03-15T14:48:51.127Z,1.47
2023-03-15T14:51:24.894Z,1.47
2023-03-15T14:53:56.338Z,1.80
2023-03-15T14:56:27.532Z,1.30
2023-03-15T14:58:54.337Z,1.83
2023-03-15T15:01:25.871Z,1.80
2023-03-15T15:03:59.653Z,1.73
2023-03-15T15:06:29.895Z,1.83
2023-03-15T15:09:00.092Z,1.70
2023-03-15T15:11:27.258Z,1.83
2023-03-15T15:13:54.244Z,1.80
2023-03-15T15:16:21.001Z,1.27
2023-03-15T15:18:48.531Z,1.50
2023-03-15T15:21:33.692Z,2.00
2023-03-15T15:24:04.880Z,1.47
2023-03-15T15:26:33.429Z,1.40
2023-03-15T15:29:00.802Z,1.60
2023-03-15T15:31:30.091Z,1.57
2023-03-15T15:33:57.443Z,1.53
2023-03-15T15:36:34.000Z,1.80
2023-03-15T15:39:06.447Z,2.23
2023-03-15T15:41:34.266Z,1.70
2023-03-15T15:44:01.605Z,1.93
2023-03-15T15:46:28.485Z,1.60
2023-03-15T15:48:55.355Z,1.63
2023-03-15T15:51:38.525Z,1.90
2023-03-15T15:54:06.573Z,2.13
2023-03-15T15:56:39.992Z,1.70
2023-03-15T15:59:13.624Z,1.97
2023-03-15T16:01:56.720Z,1.90
2023-03-15T16:04:26.200Z,1.60
2023-03-15T16:06:58.635Z,2.10
2023-03-15T16:09:28.601Z,1.77
2023-03-15T16:11:55.640Z,1.90
2023-03-15T16:14:22.573Z,2.07
2023-03-15T16:16:49.349Z,1.90
2023-03-15T16:19:16.151Z,1.63
2023-03-15T16:21:47.791Z,1.67
2023-03-15T16:24:31.795Z,2.03
2023-03-15T16:27:08.123Z,1.43
2023-03-15T16:29:48.194Z,1.70
2023-03-15T16:32:29.815Z,2.00
2023-03-15T16:35:15.445Z,1.70
2023-03-15T16:37:43.381Z,1.97
2023-03-15T16:40:25.269Z,2.00
2023-03-15T16:42:52.431Z,1.73
2023-03-15T16:45:19.670Z,2.10
2023-03-15T16:47:46.687Z,2.03
2023-03-15T16:50:13.423Z,1.80
2023-03-15T16:52:43.415Z,1.67
2023-03-15T16:55:14.455Z,2.00
2023-03-15T16:57:41.713Z,1.70
2023-03-15T17:00:20.295Z,1.73
2023-03-15T17:02:49.967Z,1.80
2023-03-15T17:05:19.102Z,1.80
2023-03-15T17:07:48.617Z,1.67
2023-03-15T17:10:29.537Z,1.57
2023-03-15T17:12:59.737Z,1.67
2023-03-15T17:15:29.038Z,1.47
2023-03-15T17:18:00.336Z,2.13
2023-03-15T17:20:29.105Z,2.03
2023-03-15T17:23:04.139Z,1.70
2023-03-15T17:25:32.848Z,2.13
2023-03-15T17:28:00.410Z,1.80
2023-03-15T17:30:33.888Z,1.90
2023-03-15T17:33:01.509Z,1.90
2023-03-15T17:35:35.960Z,2.03
2023-03-15T17:38:06.386Z,1.90
2023-03-15T17:40:36.158Z,2.03
2023-03-15T17:43:04.029Z,1.80
2023-03-15T17:45:33.525Z,2.50
2023-03-15T17:48:01.894Z,2.20
2023-03-15T17:50:32.592Z,1.90
2023-03-15T17:53:21.029Z,1.93
2023-03-15T17:55:48.964Z,1.87
2023-03-15T17:58:22.749Z,1.70
2023-03-15T18:00:54.712Z,2.13
2023-03-15T18:03:23.588Z,2.10
2023-03-15T18:05:51.931Z,2.27
2023-03-15T18:08:24.923Z,1.60
2023-03-15T18:10:54.870Z,1.53
2023-03-15T18:13:23.401Z,1.70
2023-03-15T18:15:51.206Z,2.07
2023-03-15T18:18:27.121Z,1.80
2023-03-15T18:20:53.964Z,1.60
2023-03-15T18:23:20.646Z,1.73
2023-03-15T18:25:48.207Z,2.03
2023-03-15T18:28:15.050Z,1.87
2023-03-15T18:30:41.928Z,1.77
2023-03-15T18:33:10.799Z,1.27
2023-03-15T18:35:38.100Z,1.80
2023-03-15T18:38:05.500Z,1.63
2023-03-15T18:40:33.859Z,1.40
2023-03-15T18:43:01.412Z,1.77
2023-03-15T18:45:32.292Z,1.60
2023-03-15T18:48:02.162Z,1.70
2023-03-15T18:50:30.299Z,1.53
2023-03-15T18:52:57.805Z,1.87
2023-03-15T18:55:25.044Z,1.83
2023-03-15T18:57:54.570Z,1.80
2023-03-15T19:00:29.423Z,2.10
2023-03-15T19:03:00.175Z,2.20
2023-03-15T19:05:30.669Z,1.90
2023-03-15T19:07:57.921Z,2.00
2023-03-15T19:10:25.726Z,2.57
2023-03-15T19:12:53.482Z,1.87
2023-03-15T19:15:22.553Z,2.77
2023-03-15T19:17:54.486Z,3.15
2023-03-15T19:20:22.402Z,3.60
2023-03-15T19:22:51.827Z,2.80
2023-03-15T19:25:20.312Z,1.80
2023-03-15T19:27:47.209Z,1.90
2023-03-15T19:30:20.843Z,2.53
2023-03-15T19:32:48.523Z,2.23
2023-03-15T19:35:17.541Z,2.00
2023-03-15T19:37:44.537Z,2.23
2023-03-15T19:40:13.956Z,2.10
2023-03-15T19:42:41.431Z,1.90
2023-03-15T19:45:09.446Z,2.60
2023-03-15T19:47:36.279Z,2.27
2023-03-15T19:50:03.444Z,2.10
2023-03-15T19:52:30.326Z,2.10
2023-03-15T19:54:57.155Z,2.67
2023-03-15T19:57:23.987Z,2.10
2023-03-15T19:59:50.735Z,2.07
2023-03-15T20:02:17.549Z,2.20
2023-03-15T20:04:45.333Z,2.57
2023-03-15T20:07:12.349Z,2.33
2023-03-15T20:09:41.371Z,2.27
2023-03-15T20:12:11.200Z,2.43
2023-03-15T20:14:38.596Z,2.40
2023-03-15T20:17:05.798Z,2.50
2023-03-15T20:19:33.404Z,3.90
2023-03-15T20:22:00.412Z,4.90
2023-03-15T20:24:27.640Z,2.80
2023-03-15T20:26:54.628Z,2.43
2023-03-15T20:29:23.343Z,2.57
2023-03-15T20:31:50.902Z,2.80
2023-03-15T20:34:18.901Z,2.60
2023-03-15T20:36:45.699Z,2.30
2023-03-15T20:39:12.540Z,2.57
2023-03-15T20:41:39.300Z,2.33
2023-03-15T20:44:07.158Z,2.30
2023-03-15T20:46:34.282Z,2.23
2023-03-15T20:49:01.293Z,2.50
2023-03-15T20:51:28.178Z,2.43
2023-03-15T20:53:54.958Z,2.93
2023-03-15T20:56:21.879Z,2.30
2023-03-15T20:58:48.729Z,2.10
2023-03-15T21:01:16.762Z,2.40
2023-03-15T21:03:45.703Z,2.50
2023-03-15T21:06:13.484Z,2.13
2023-03-15T21:08:42.256Z,2.33
2023-03-15T21:11:09.489Z,2.73
2023-03-15T21:13:36.278Z,2.03
2023-03-15T21:16:04.487Z,2.17
2023-03-15T21:18:33.549Z,2.00
2023-03-15T21:21:07.233Z,1.73
2023-03-15T21:23:34.912Z,1.77
2023-03-15T21:26:07.829Z,1.67
2023-03-15T21:28:35.368Z,1.80
2023-03-15T21:31:04.011Z,1.83
2023-03-15T21:33:31.776Z,2.10
2023-03-15T21:36:00.345Z,1.67
2023-03-15T21:38:31.388Z,1.93
2023-03-15T21:40:59.746Z,2.37
2023-03-15T21:43:30.508Z,2.63
2023-03-15T21:46:05.559Z,2.03
2023-03-15T21:48:33.786Z,2.23
2023-03-15T21:51:02.025Z,1.93
2023-03-15T21:53:30.111Z,2.07
2023-03-15T21:55:58.888Z,2.40
2023-03-15T21:58:26.752Z,2.13
2023-03-15T22:01:13.962Z,2.70
2023-03-15T22:03:42.410Z,2.00
2023-03-15T22:06:09.192Z,2.30
2023-03-15T22:08:35.966Z,2.23
2023-03-15T22:11:04.586Z,2.30
2023-03-15T22:13:31.663Z,2.03
2023-03-15T22:15:58.734Z,2.10
2023-03-15T22:18:28.604Z,2.07
2023-03-15T22:20:56.429Z,2.20
2023-03-15T22:23:24.405Z,2.00
2023-03-15T22:25:53.532Z,2.27
2023-03-15T22:28:22.541Z,2.90
2023-03-15T22:30:49.968Z,2.27
2023-03-15T22:33:18.734Z,2.40
2023-03-15T22:35:45.996Z,2.20
2023-03-15T22:38:12.739Z,2.10
2023-03-15T22:40:41.089Z,2.43
2023-03-15T22:43:08.643Z,2.47
2023-03-15T22:45:36.063Z,2.33
2023-03-15T22:48:03.258Z,2.13
2023-03-15T22:50:30.959Z,2.00
2023-03-15T22:52:57.730Z,2.27
2023-03-15T22:55:24.993Z,2.20
2023-03-15T22:57:51.780Z,1.80
2023-03-15T23:00:22.082Z,2.07
2023-03-15T23:02:49.107Z,2.27
2023-03-15T23:05:16.396Z,1.80
2023-03-15T23:07:43.608Z,2.10
2023-03-15T23:10:11.801Z,1.80
2023-03-15T23:12:38.671Z,1.90
2023-03-15T23:15:06.474Z,2.00
2023-03-15T23:17:33.238Z,1.90
2023-03-15T23:19:59.970Z,1.80
2023-03-15T23:22:26.844Z,1.67
2023-03-15T23:24:58.336Z,1.80
2023-03-15T23:27:25.949Z,1.80
2023-03-15T23:29:54.760Z,1.83
2023-03-15T23:32:24.938Z,1.87
2023-03-15T23:34:53.525Z,1.73
2023-03-15T23:37:20.976Z,1.43
2023-03-15T23:39:47.781Z,1.93
2023-03-15T23:42:14.607Z,1.80
2023-03-15T23:44:41.575Z,2.00
2023-03-15T23:47:08.632Z,1.90
2023-03-15T23:49:35.775Z,1.93
2023-03-15T23:52:06.587Z,2.00
2023-03-15T23:54:39.647Z,1.73
2023-03-15T23:57:08.590Z,1.90
2023-03-15T23:59:36.977Z,1.60
